sensor_id;sensor_type;location;lat;lon;timestamp;P1;durP1;ratioP1;P2;durP2;ratioP2
71888;SDS011;59762;49.998;14.858;2022-09-27T00:02:15;14.10;;;4.75;;
71888;SDS011;59762;49.998;14.858;2022-09-27T00:04:40;11.27;;;5.57;;
71888;SDS011;59762;49.998;14.858;2022-09-27T00:07:06;12.85;;;4.80;;
71888;SDS011;59762;49.998;14.858;2022-09-27T00:09:31;7.90;;;4.70;;
71888;SDS011;59762;49.998;14.858;2022-09-27T00:11:58;13.30;;;4.72;;
71888;SDS011;59762;49.998;14.858;2022-09-27T00:14:23;8.77;;;4.45;;
71888;SDS011;59762;49.998;14.858;2022-09-27T00:16:49;9.50;;;4.60;;
71888;SDS011;59762;49.998;14.858;2022-09-27T00:19:18;10.48;;;4.60;;
71888;SDS011;59762;49.998;14.858;2022-09-27T00:21:47;9.30;;;4.45;;
71888;SDS011;59762;49.998;14.858;2022-09-27T00:24:15;6.78;;;4.32;;
71888;SDS011;59762;49.998;14.858;2022-09-27T00:26:45;7.65;;;3.78;;
71888;SDS011;59762;49.998;14.858;2022-09-27T00:29:11;7.95;;;3.75;;
71888;SDS011;59762;49.998;14.858;2022-09-27T00:31:38;6.80;;;3.75;;
71888;SDS011;59762;49.998;14.858;2022-09-27T00:34:04;9.55;;;4.10;;
71888;SDS011;59762;49.998;14.858;2022-09-27T00:36:31;8.48;;;4.25;;
71888;SDS011;59762;49.998;14.858;2022-09-27T00:38:58;8.20;;;4.00;;
71888;SDS011;59762;49.998;14.858;2022-09-27T00:41:29;8.98;;;4.07;;
71888;SDS011;59762;49.998;14.858;2022-09-27T00:43:57;8.07;;;3.88;;
71888;SDS011;59762;49.998;14.858;2022-09-27T00:46:35;7.00;;;3.92;;
71888;SDS011;59762;49.998;14.858;2022-09-27T00:49:19;10.07;;;4.15;;
71888;SDS011;59762;49.998;14.858;2022-09-27T00:52:03;8.43;;;3.90;;
71888;SDS011;59762;49.998;14.858;2022-09-27T00:54:33;5.85;;;3.53;;
71888;SDS011;59762;49.998;14.858;2022-09-27T00:57:01;9.57;;;3.95;;
71888;SDS011;59762;49.998;14.858;2022-09-27T01:02:26;11.02;;;3.90;;
71888;SDS011;59762;49.998;14.858;2022-09-27T01:04:52;8.85;;;4.40;;
71888;SDS011;59762;49.998;14.858;2022-09-27T01:07:19;10.13;;;4.82;;
71888;SDS011;59762;49.998;14.858;2022-09-27T01:09:45;19.92;;;5.90;;
71888;SDS011;59762;49.998;14.858;2022-09-27T01:12:16;8.10;;;4.38;;
71888;SDS011;59762;49.998;14.858;2022-09-27T01:15:12;6.70;;;4.35;;
71888;SDS011;59762;49.998;14.858;2022-09-27T01:26:05;9.10;;;3.15;;
71888;SDS011;59762;49.998;14.858;2022-09-27T01:34:22;6.22;;;4.03;;
71888;SDS011;59762;49.998;14.858;2022-09-27T01:47:51;4.63;;;2.88;;
71888;SDS011;59762;49.998;14.858;2022-09-27T01:50:28;5.32;;;2.80;;
71888;SDS011;59762;49.998;14.858;2022-09-27T01:53:19;4.88;;;3.10;;
71888;SDS011;59762;49.998;14.858;2022-09-27T01:55:58;4.63;;;2.85;;
71888;SDS011;59762;49.998;14.858;2022-09-27T01:58:32;4.57;;;2.88;;
71888;SDS011;59762;49.998;14.858;2022-09-27T02:01:04;7.00;;;2.90;;
71888;SDS011;59762;49.998;14.858;2022-09-27T02:03:38;4.97;;;3.33;;
71888;SDS011;59762;49.998;14.858;2022-09-27T02:06:09;7.63;;;3.67;;
71888;SDS011;59762;49.998;14.858;2022-09-27T02:08:51;5.15;;;3.13;;
71888;SDS011;59762;49.998;14.858;2022-09-27T02:11:21;4.80;;;3.22;;
71888;SDS011;59762;49.998;14.858;2022-09-27T02:13:54;6.65;;;2.85;;
71888;SDS011;59762;49.998;14.858;2022-09-27T02:19:17;6.03;;;3.20;;
71888;SDS011;59762;49.998;14.858;2022-09-27T02:24:40;5.88;;;3.78;;
71888;SDS011;59762;49.998;14.858;2022-09-27T02:27:14;5.05;;;3.03;;
71888;SDS011;59762;49.998;14.858;2022-09-27T02:29:46;6.22;;;3.20;;
71888;SDS011;59762;49.998;14.858;2022-09-27T02:32:19;7.38;;;3.05;;
71888;SDS011;59762;49.998;14.858;2022-09-27T02:34:44;5.32;;;3.35;;
71888;SDS011;59762;49.998;14.858;2022-09-27T02:37:13;4.45;;;2.95;;
71888;SDS011;59762;49.998;14.858;2022-09-27T02:39:38;5.10;;;2.90;;
71888;SDS011;59762;49.998;14.858;2022-09-27T02:42:04;5.75;;;3.05;;
71888;SDS011;59762;49.998;14.858;2022-09-27T02:44:31;5.85;;;2.80;;
71888;SDS011;59762;49.998;14.858;2022-09-27T02:58:17;4.18;;;2.72;;
71888;SDS011;59762;49.998;14.858;2022-09-27T03:01:12;6.47;;;3.35;;
71888;SDS011;59762;49.998;14.858;2022-09-27T03:04:11;5.13;;;2.63;;
71888;SDS011;59762;49.998;14.858;2022-09-27T03:06:42;4.97;;;3.10;;
71888;SDS011;59762;49.998;14.858;2022-09-27T03:09:38;4.20;;;2.15;;
71888;SDS011;59762;49.998;14.858;2022-09-27T03:12:08;4.65;;;2.78;;
71888;SDS011;59762;49.998;14.858;2022-09-27T03:14:33;8.95;;;3.10;;
71888;SDS011;59762;49.998;14.858;2022-09-27T03:16:58;6.38;;;2.80;;
71888;SDS011;59762;49.998;14.858;2022-09-27T03:19:24;4.80;;;3.08;;
71888;SDS011;59762;49.998;14.858;2022-09-27T03:21:50;5.90;;;3.30;;
71888;SDS011;59762;49.998;14.858;2022-09-27T03:24:15;4.95;;;2.92;;
71888;SDS011;59762;49.998;14.858;2022-09-27T03:26:41;6.43;;;3.50;;
71888;SDS011;59762;49.998;14.858;2022-09-27T03:29:07;8.43;;;3.00;;
71888;SDS011;59762;49.998;14.858;2022-09-27T03:31:32;6.00;;;3.03;;
71888;SDS011;59762;49.998;14.858;2022-09-27T03:33:58;10.13;;;4.03;;
71888;SDS011;59762;49.998;14.858;2022-09-27T03:36:23;5.80;;;2.95;;
71888;SDS011;59762;49.998;14.858;2022-09-27T03:38:49;6.45;;;2.63;;
71888;SDS011;59762;49.998;14.858;2022-09-27T03:41:15;5.18;;;2.60;;
71888;SDS011;59762;49.998;14.858;2022-09-27T03:43:40;5.10;;;2.45;;
71888;SDS011;59762;49.998;14.858;2022-09-27T03:46:06;2.95;;;2.10;;
71888;SDS011;59762;49.998;14.858;2022-09-27T03:48:31;4.22;;;2.85;;
71888;SDS011;59762;49.998;14.858;2022-09-27T03:50:57;7.53;;;2.75;;
71888;SDS011;59762;49.998;14.858;2022-09-27T03:53:22;4.60;;;3.03;;
71888;SDS011;59762;49.998;14.858;2022-09-27T03:55:49;4.32;;;2.63;;
71888;SDS011;59762;49.998;14.858;2022-09-27T03:58:14;3.75;;;2.13;;
71888;SDS011;59762;49.998;14.858;2022-09-27T04:00:40;4.40;;;2.38;;
71888;SDS011;59762;49.998;14.858;2022-09-27T04:03:07;4.50;;;2.85;;
71888;SDS011;59762;49.998;14.858;2022-09-27T04:05:32;4.63;;;2.38;;
71888;SDS011;59762;49.998;14.858;2022-09-27T04:07:58;4.03;;;2.22;;
71888;SDS011;59762;49.998;14.858;2022-09-27T04:10:23;3.30;;;2.35;;
71888;SDS011;59762;49.998;14.858;2022-09-27T04:12:49;4.40;;;2.42;;
71888;SDS011;59762;49.998;14.858;2022-09-27T04:15:15;4.57;;;3.00;;
71888;SDS011;59762;49.998;14.858;2022-09-27T04:17:41;8.48;;;4.38;;
71888;SDS011;59762;49.998;14.858;2022-09-27T04:20:07;8.55;;;3.75;;
71888;SDS011;59762;49.998;14.858;2022-09-27T04:22:34;14.05;;;3.60;;
71888;SDS011;59762;49.998;14.858;2022-09-27T04:25:03;11.35;;;3.80;;
71888;SDS011;59762;49.998;14.858;2022-09-27T04:27:29;9.13;;;3.28;;
71888;SDS011;59762;49.998;14.858;2022-09-27T04:29:55;13.85;;;4.32;;
71888;SDS011;59762;49.998;14.858;2022-09-27T04:32:21;8.05;;;3.75;;
71888;SDS011;59762;49.998;14.858;2022-09-27T04:34:46;7.85;;;3.38;;
71888;SDS011;59762;49.998;14.858;2022-09-27T04:37:30;5.95;;;2.80;;
71888;SDS011;59762;49.998;14.858;2022-09-27T04:39:56;3.92;;;2.40;;
71888;SDS011;59762;49.998;14.858;2022-09-27T04:42:21;5.82;;;2.40;;
71888;SDS011;59762;49.998;14.858;2022-09-27T04:44:47;8.00;;;3.72;;
71888;SDS011;59762;49.998;14.858;2022-09-27T04:47:13;7.30;;;3.58;;
71888;SDS011;59762;49.998;14.858;2022-09-27T04:49:38;15.10;;;6.93;;
71888;SDS011;59762;49.998;14.858;2022-09-27T04:52:04;11.48;;;5.13;;
71888;SDS011;59762;49.998;14.858;2022-09-27T04:54:30;12.20;;;6.22;;
71888;SDS011;59762;49.998;14.858;2022-09-27T04:56:56;8.30;;;3.40;;
71888;SDS011;59762;49.998;14.858;2022-09-27T04:59:21;4.78;;;2.45;;
71888;SDS011;59762;49.998;14.858;2022-09-27T05:01:47;4.38;;;2.20;;
71888;SDS011;59762;49.998;14.858;2022-09-27T05:04:14;9.52;;;1.95;;
71888;SDS011;59762;49.998;14.858;2022-09-27T05:06:40;5.03;;;2.90;;
71888;SDS011;59762;49.998;14.858;2022-09-27T05:09:05;5.15;;;3.03;;
71888;SDS011;59762;49.998;14.858;2022-09-27T05:11:31;7.00;;;4.00;;
71888;SDS011;59762;49.998;14.858;2022-09-27T05:13:57;9.13;;;4.45;;
71888;SDS011;59762;49.998;14.858;2022-09-27T05:16:22;8.18;;;4.38;;
71888;SDS011;59762;49.998;14.858;2022-09-27T05:18:49;16.17;;;5.43;;
71888;SDS011;59762;49.998;14.858;2022-09-27T05:21:14;14.32;;;5.82;;
71888;SDS011;59762;49.998;14.858;2022-09-27T05:23:40;11.98;;;5.55;;
71888;SDS011;59762;49.998;14.858;2022-09-27T05:26:06;8.45;;;3.83;;
71888;SDS011;59762;49.998;14.858;2022-09-27T05:28:33;9.38;;;4.05;;
71888;SDS011;59762;49.998;14.858;2022-09-27T05:31:01;5.95;;;3.33;;
71888;SDS011;59762;49.998;14.858;2022-09-27T05:33:27;7.70;;;2.50;;
71888;SDS011;59762;49.998;14.858;2022-09-27T05:35:54;8.43;;;2.55;;
71888;SDS011;59762;49.998;14.858;2022-09-27T05:38:20;11.00;;;5.07;;
71888;SDS011;59762;49.998;14.858;2022-09-27T05:40:46;10.93;;;5.90;;
71888;SDS011;59762;49.998;14.858;2022-09-27T05:43:14;12.20;;;5.32;;
71888;SDS011;59762;49.998;14.858;2022-09-27T05:45:40;13.18;;;6.47;;
71888;SDS011;59762;49.998;14.858;2022-09-27T05:48:07;7.57;;;3.50;;
71888;SDS011;59762;49.998;14.858;2022-09-27T05:50:33;12.02;;;4.10;;
71888;SDS011;59762;49.998;14.858;2022-09-27T05:52:59;11.32;;;5.60;;
71888;SDS011;59762;49.998;14.858;2022-09-27T05:55:24;22.23;;;8.30;;
71888;SDS011;59762;49.998;14.858;2022-09-27T05:58:00;32.72;;;11.90;;
71888;SDS011;59762;49.998;14.858;2022-09-27T06:00:28;19.35;;;8.00;;
71888;SDS011;59762;49.998;14.858;2022-09-27T06:02:57;9.60;;;4.53;;
71888;SDS011;59762;49.998;14.858;2022-09-27T06:05:25;5.45;;;2.70;;
71888;SDS011;59762;49.998;14.858;2022-09-27T06:07:57;7.30;;;3.05;;
71888;SDS011;59762;49.998;14.858;2022-09-27T06:10:24;6.57;;;2.60;;
71888;SDS011;59762;49.998;14.858;2022-09-27T06:12:49;6.15;;;3.28;;
71888;SDS011;59762;49.998;14.858;2022-09-27T06:15:15;4.28;;;2.65;;
71888;SDS011;59762;49.998;14.858;2022-09-27T06:17:41;5.18;;;2.15;;
71888;SDS011;59762;49.998;14.858;2022-09-27T06:20:06;5.43;;;1.90;;
71888;SDS011;59762;49.998;14.858;2022-09-27T06:22:33;5.70;;;2.45;;
71888;SDS011;59762;49.998;14.858;2022-09-27T06:25:00;8.40;;;4.47;;
71888;SDS011;59762;49.998;14.858;2022-09-27T06:27:28;16.25;;;5.85;;
71888;SDS011;59762;49.998;14.858;2022-09-27T06:29:55;11.13;;;5.25;;
71888;SDS011;59762;49.998;14.858;2022-09-27T06:32:20;6.72;;;4.35;;
71888;SDS011;59762;49.998;14.858;2022-09-27T06:34:46;9.13;;;4.60;;
71888;SDS011;59762;49.998;14.858;2022-09-27T06:37:12;3.75;;;2.40;;
71888;SDS011;59762;49.998;14.858;2022-09-27T06:39:37;7.90;;;3.70;;
71888;SDS011;59762;49.998;14.858;2022-09-27T06:42:03;4.18;;;3.10;;
71888;SDS011;59762;49.998;14.858;2022-09-27T06:44:28;9.98;;;3.17;;
71888;SDS011;59762;49.998;14.858;2022-09-27T06:46:54;6.35;;;2.90;;
71888;SDS011;59762;49.998;14.858;2022-09-27T06:49:20;6.85;;;4.07;;
71888;SDS011;59762;49.998;14.858;2022-09-27T06:51:49;5.10;;;3.03;;
71888;SDS011;59762;49.998;14.858;2022-09-27T06:54:17;3.97;;;3.03;;
71888;SDS011;59762;49.998;14.858;2022-09-27T06:56:43;5.10;;;2.55;;
71888;SDS011;59762;49.998;14.858;2022-09-27T06:59:11;7.15;;;4.05;;
71888;SDS011;59762;49.998;14.858;2022-09-27T07:01:55;6.95;;;4.30;;
71888;SDS011;59762;49.998;14.858;2022-09-27T07:04:21;17.77;;;6.95;;
71888;SDS011;59762;49.998;14.858;2022-09-27T07:06:46;12.95;;;5.85;;
71888;SDS011;59762;49.998;14.858;2022-09-27T07:09:12;12.80;;;6.25;;
71888;SDS011;59762;49.998;14.858;2022-09-27T07:11:38;10.27;;;4.65;;
71888;SDS011;59762;49.998;14.858;2022-09-27T07:14:04;16.90;;;6.30;;
71888;SDS011;59762;49.998;14.858;2022-09-27T07:16:31;9.07;;;3.80;;
71888;SDS011;59762;49.998;14.858;2022-09-27T07:18:59;8.68;;;3.78;;
71888;SDS011;59762;49.998;14.858;2022-09-27T07:21:25;20.00;;;7.55;;
71888;SDS011;59762;49.998;14.858;2022-09-27T07:23:51;13.95;;;5.97;;
71888;SDS011;59762;49.998;14.858;2022-09-27T07:26:17;9.73;;;4.47;;
71888;SDS011;59762;49.998;14.858;2022-09-27T07:28:43;13.68;;;5.60;;
71888;SDS011;59762;49.998;14.858;2022-09-27T07:31:10;13.32;;;6.93;;
71888;SDS011;59762;49.998;14.858;2022-09-27T07:33:37;9.70;;;5.07;;
71888;SDS011;59762;49.998;14.858;2022-09-27T07:36:07;7.82;;;3.92;;
71888;SDS011;59762;49.998;14.858;2022-09-27T07:38:34;11.27;;;3.85;;
71888;SDS011;59762;49.998;14.858;2022-09-27T07:41:10;18.17;;;5.80;;
71888;SDS011;59762;49.998;14.858;2022-09-27T07:43:40;9.13;;;4.30;;
71888;SDS011;59762;49.998;14.858;2022-09-27T07:46:08;7.00;;;3.67;;
71888;SDS011;59762;49.998;14.858;2022-09-27T07:48:35;46.22;;;15.63;;
71888;SDS011;59762;49.998;14.858;2022-09-27T07:51:01;23.58;;;8.65;;
71888;SDS011;59762;49.998;14.858;2022-09-27T07:53:26;15.65;;;5.32;;
71888;SDS011;59762;49.998;14.858;2022-09-27T07:55:52;16.08;;;5.20;;
71888;SDS011;59762;49.998;14.858;2022-09-27T07:58:18;17.23;;;5.82;;
71888;SDS011;59762;49.998;14.858;2022-09-27T08:00:44;11.82;;;4.65;;
71888;SDS011;59762;49.998;14.858;2022-09-27T08:03:11;13.07;;;4.55;;
71888;SDS011;59762;49.998;14.858;2022-09-27T08:05:40;11.75;;;5.07;;
71888;SDS011;59762;49.998;14.858;2022-09-27T08:08:07;19.67;;;6.97;;
71888;SDS011;59762;49.998;14.858;2022-09-27T08:10:33;14.43;;;4.50;;
71888;SDS011;59762;49.998;14.858;2022-09-27T08:12:59;9.63;;;4.15;;
71888;SDS011;59762;49.998;14.858;2022-09-27T08:15:27;13.98;;;4.75;;
71888;SDS011;59762;49.998;14.858;2022-09-27T08:17:54;8.77;;;3.00;;
71888;SDS011;59762;49.998;14.858;2022-09-27T08:20:19;7.65;;;3.65;;
71888;SDS011;59762;49.998;14.858;2022-09-27T08:22:45;8.40;;;3.78;;
71888;SDS011;59762;49.998;14.858;2022-09-27T08:25:11;13.20;;;4.80;;
71888;SDS011;59762;49.998;14.858;2022-09-27T08:27:38;7.57;;;3.63;;
71888;SDS011;59762;49.998;14.858;2022-09-27T08:30:04;7.45;;;2.83;;
71888;SDS011;59762;49.998;14.858;2022-09-27T08:32:30;14.07;;;5.47;;
71888;SDS011;59762;49.998;14.858;2022-09-27T08:34:57;8.85;;;3.17;;
71888;SDS011;59762;49.998;14.858;2022-09-27T08:37:24;9.10;;;4.07;;
71888;SDS011;59762;49.998;14.858;2022-09-27T08:39:50;10.07;;;4.18;;
71888;SDS011;59762;49.998;14.858;2022-09-27T08:45:07;25.65;;;8.30;;
71888;SDS011;59762;49.998;14.858;2022-09-27T08:47:39;28.00;;;9.00;;
71888;SDS011;59762;49.998;14.858;2022-09-27T08:52:55;14.85;;;5.68;;
71888;SDS011;59762;49.998;14.858;2022-09-27T08:55:37;13.00;;;5.93;;
71888;SDS011;59762;49.998;14.858;2022-09-27T08:58:15;16.95;;;5.68;;
71888;SDS011;59762;49.998;14.858;2022-09-27T09:00:50;19.17;;;8.93;;
71888;SDS011;59762;49.998;14.858;2022-09-27T09:03:24;9.93;;;4.97;;
71888;SDS011;59762;49.998;14.858;2022-09-27T09:08:54;8.15;;;4.15;;
71888;SDS011;59762;49.998;14.858;2022-09-27T09:11:41;9.00;;;3.40;;
71888;SDS011;59762;49.998;14.858;2022-09-27T09:14:32;7.10;;;2.72;;
71888;SDS011;59762;49.998;14.858;2022-09-27T09:20:10;9.75;;;4.90;;
71888;SDS011;59762;49.998;14.858;2022-09-27T09:31:17;13.48;;;7.45;;
71888;SDS011;59762;49.998;14.858;2022-09-27T09:33:53;13.52;;;5.03;;
71888;SDS011;59762;49.998;14.858;2022-09-27T09:39:02;11.88;;;5.35;;
71888;SDS011;59762;49.998;14.858;2022-09-27T09:41:53;19.13;;;8.75;;
71888;SDS011;59762;49.998;14.858;2022-09-27T09:50:05;10.15;;;4.97;;
71888;SDS011;59762;49.998;14.858;2022-09-27T09:52:42;10.40;;;4.22;;
71888;SDS011;59762;49.998;14.858;2022-09-27T09:57:39;4.88;;;2.17;;
71888;SDS011;59762;49.998;14.858;2022-09-27T10:00:13;6.72;;;3.47;;
71888;SDS011;59762;49.998;14.858;2022-09-27T10:02:44;8.13;;;3.75;;
71888;SDS011;59762;49.998;14.858;2022-09-27T10:05:14;1.85;;;1.20;;
71888;SDS011;59762;49.998;14.858;2022-09-27T10:07:41;2.78;;;1.75;;
71888;SDS011;59762;49.998;14.858;2022-09-27T10:10:07;7.63;;;3.25;;
71888;SDS011;59762;49.998;14.858;2022-09-27T10:12:38;2.53;;;1.58;;
71888;SDS011;59762;49.998;14.858;2022-09-27T10:15:04;6.20;;;1.80;;
71888;SDS011;59762;49.998;14.858;2022-09-27T10:17:34;6.18;;;1.85;;
71888;SDS011;59762;49.998;14.858;2022-09-27T10:20:03;3.90;;;1.85;;
71888;SDS011;59762;49.998;14.858;2022-09-27T10:22:38;2.88;;;1.40;;
71888;SDS011;59762;49.998;14.858;2022-09-27T10:25:10;2.08;;;1.00;;
71888;SDS011;59762;49.998;14.858;2022-09-27T10:27:46;2.92;;;0.88;;
71888;SDS011;59762;49.998;14.858;2022-09-27T10:30:29;0.88;;;0.70;;
71888;SDS011;59762;49.998;14.858;2022-09-27T10:33:02;0.70;;;0.65;;
71888;SDS011;59762;49.998;14.858;2022-09-27T10:40:49;1.30;;;0.77;;
71888;SDS011;59762;49.998;14.858;2022-09-27T10:43:24;0.88;;;0.70;;
71888;SDS011;59762;49.998;14.858;2022-09-27T10:48:36;2.03;;;1.13;;
71888;SDS011;59762;49.998;14.858;2022-09-27T10:51:04;2.80;;;1.20;;
71888;SDS011;59762;49.998;14.858;2022-09-27T10:53:33;2.72;;;1.20;;
71888;SDS011;59762;49.998;14.858;2022-09-27T10:56:00;3.22;;;1.52;;
71888;SDS011;59762;49.998;14.858;2022-09-27T10:58:27;2.55;;;1.25;;
71888;SDS011;59762;49.998;14.858;2022-09-27T11:00:58;2.90;;;1.35;;
71888;SDS011;59762;49.998;14.858;2022-09-27T11:03:30;1.83;;;1.27;;
71888;SDS011;59762;49.998;14.858;2022-09-27T11:06:15;2.42;;;0.90;;
71888;SDS011;59762;49.998;14.858;2022-09-27T11:08:44;2.38;;;1.30;;
71888;SDS011;59762;49.998;14.858;2022-09-27T11:13:38;2.40;;;0.98;;
71888;SDS011;59762;49.998;14.858;2022-09-27T11:19:01;6.32;;;1.70;;
71888;SDS011;59762;49.998;14.858;2022-09-27T11:22:05;6.07;;;1.80;;
71888;SDS011;59762;49.998;14.858;2022-09-27T11:24:47;2.38;;;1.35;;
71888;SDS011;59762;49.998;14.858;2022-09-27T12:06:31;3.67;;;1.92;;
71888;SDS011;59762;49.998;14.858;2022-09-27T12:09:09;2.88;;;1.30;;
71888;SDS011;59762;49.998;14.858;2022-09-27T12:11:41;65.68;;;26.70;;
71888;SDS011;59762;49.998;14.858;2022-09-27T12:19:21;18.20;;;7.10;;
71888;SDS011;59762;49.998;14.858;2022-09-27T12:21:51;6.05;;;2.90;;
71888;SDS011;59762;49.998;14.858;2022-09-27T12:24:20;4.53;;;1.90;;
71888;SDS011;59762;49.998;14.858;2022-09-27T12:26:48;4.60;;;2.90;;
71888;SDS011;59762;49.998;14.858;2022-09-27T12:29:28;9.63;;;5.75;;
71888;SDS011;59762;49.998;14.858;2022-09-27T12:32:04;5.65;;;3.22;;
71888;SDS011;59762;49.998;14.858;2022-09-27T12:34:33;1.55;;;1.08;;
71888;SDS011;59762;49.998;14.858;2022-09-27T12:37:04;0.85;;;0.50;;
71888;SDS011;59762;49.998;14.858;2022-09-27T12:39:44;1.30;;;0.63;;
71888;SDS011;59762;49.998;14.858;2022-09-27T12:42:24;1.00;;;0.60;;
71888;SDS011;59762;49.998;14.858;2022-09-27T12:44:56;0.50;;;0.50;;
71888;SDS011;59762;49.998;14.858;2022-09-27T12:50:29;1.88;;;0.90;;
71888;SDS011;59762;49.998;14.858;2022-09-27T12:53:32;0.50;;;0.50;;
71888;SDS011;59762;49.998;14.858;2022-09-27T13:06:50;0.65;;;0.47;;
71888;SDS011;59762;49.998;14.858;2022-09-27T13:12:10;14.90;;;7.15;;
71888;SDS011;59762;49.998;14.858;2022-09-27T13:14:40;0.88;;;0.80;;
71888;SDS011;59762;49.998;14.858;2022-09-27T13:19:57;0.70;;;0.60;;
71888;SDS011;59762;49.998;14.858;2022-09-27T13:24:52;0.60;;;0.60;;
71888;SDS011;59762;49.998;14.858;2022-09-27T13:29:46;1.55;;;0.60;;
71888;SDS011;59762;49.998;14.858;2022-09-27T13:32:21;1.65;;;0.75;;
71888;SDS011;59762;49.998;14.858;2022-09-27T13:34:53;0.93;;;0.77;;
71888;SDS011;59762;49.998;14.858;2022-09-27T13:37:32;0.77;;;0.50;;
71888;SDS011;59762;49.998;14.858;2022-09-27T13:40:10;7.05;;;0.70;;
71888;SDS011;59762;49.998;14.858;2022-09-27T13:42:53;0.57;;;0.40;;
71888;SDS011;59762;49.998;14.858;2022-09-27T13:45:38;2.35;;;0.45;;
71888;SDS011;59762;49.998;14.858;2022-09-27T13:48:15;0.82;;;0.63;;
71888;SDS011;59762;49.998;14.858;2022-09-27T13:50:55;0.55;;;0.52;;
71888;SDS011;59762;49.998;14.858;2022-09-27T13:55:54;2.38;;;0.50;;
71888;SDS011;59762;49.998;14.858;2022-09-27T13:58:34;1.02;;;0.65;;
71888;SDS011;59762;49.998;14.858;2022-09-27T14:01:20;0.38;;;0.32;;
71888;SDS011;59762;49.998;14.858;2022-09-27T14:03:51;0.60;;;0.50;;
71888;SDS011;59762;49.998;14.858;2022-09-27T14:06:20;0.40;;;0.40;;
71888;SDS011;59762;49.998;14.858;2022-09-27T14:11:20;1.08;;;0.70;;
71888;SDS011;59762;49.998;14.858;2022-09-27T14:13:50;0.50;;;0.40;;
71888;SDS011;59762;49.998;14.858;2022-09-27T14:16:17;0.65;;;0.60;;
71888;SDS011;59762;49.998;14.858;2022-09-27T14:18:48;1.17;;;0.60;;
71888;SDS011;59762;49.998;14.858;2022-09-27T14:21:36;1.38;;;0.77;;
71888;SDS011;59762;49.998;14.858;2022-09-27T14:24:18;3.15;;;2.25;;
71888;SDS011;59762;49.998;14.858;2022-09-27T14:26:51;1.20;;;0.88;;
71888;SDS011;59762;49.998;14.858;2022-09-27T14:32:18;0.80;;;0.80;;
71888;SDS011;59762;49.998;14.858;2022-09-27T14:34:46;3.20;;;1.13;;
71888;SDS011;59762;49.998;14.858;2022-09-27T14:38:07;1.42;;;1.20;;
71888;SDS011;59762;49.998;14.858;2022-09-27T14:40:44;4.45;;;2.50;;
71888;SDS011;59762;49.998;14.858;2022-09-27T14:43:22;1.48;;;1.13;;
71888;SDS011;59762;49.998;14.858;2022-09-27T14:45:48;0.90;;;0.80;;
71888;SDS011;59762;49.998;14.858;2022-09-27T14:48:31;2.05;;;1.38;;
71888;SDS011;59762;49.998;14.858;2022-09-27T14:51:03;0.60;;;0.60;;
71888;SDS011;59762;49.998;14.858;2022-09-27T14:53:30;1.55;;;0.70;;
71888;SDS011;59762;49.998;14.858;2022-09-27T14:56:00;1.17;;;0.70;;
71888;SDS011;59762;49.998;14.858;2022-09-27T14:58:27;3.60;;;2.67;;
71888;SDS011;59762;49.998;14.858;2022-09-27T15:00:54;2.63;;;2.30;;
71888;SDS011;59762;49.998;14.858;2022-09-27T15:03:27;1.90;;;1.10;;
71888;SDS011;59762;49.998;14.858;2022-09-27T15:05:56;2.70;;;2.08;;
71888;SDS011;59762;49.998;14.858;2022-09-27T15:08:24;1.92;;;0.73;;
71888;SDS011;59762;49.998;14.858;2022-09-27T15:10:54;1.13;;;0.85;;
71888;SDS011;59762;49.998;14.858;2022-09-27T15:13:21;1.70;;;1.25;;
71888;SDS011;59762;49.998;14.858;2022-09-27T15:15:50;3.75;;;1.80;;
71888;SDS011;59762;49.998;14.858;2022-09-27T15:18:31;2.45;;;1.02;;
71888;SDS011;59762;49.998;14.858;2022-09-27T15:20:57;3.22;;;1.67;;
71888;SDS011;59762;49.998;14.858;2022-09-27T15:23:25;2.42;;;1.23;;
71888;SDS011;59762;49.998;14.858;2022-09-27T15:25:56;1.92;;;1.00;;
71888;SDS011;59762;49.998;14.858;2022-09-27T15:28:27;5.38;;;2.30;;
71888;SDS011;59762;49.998;14.858;2022-09-27T15:30:55;5.88;;;2.75;;
71888;SDS011;59762;49.998;14.858;2022-09-27T15:35:56;1.70;;;1.20;;
71888;SDS011;59762;49.998;14.858;2022-09-27T15:51:41;21.15;;;7.53;;
71888;SDS011;59762;49.998;14.858;2022-09-27T15:54:08;15.77;;;7.85;;
71888;SDS011;59762;49.998;14.858;2022-09-27T15:56:34;5.50;;;2.67;;
71888;SDS011;59762;49.998;14.858;2022-09-27T15:59:01;8.95;;;3.83;;
71888;SDS011;59762;49.998;14.858;2022-09-27T16:01:27;16.25;;;6.53;;
71888;SDS011;59762;49.998;14.858;2022-09-27T16:03:53;7.72;;;4.53;;
71888;SDS011;59762;49.998;14.858;2022-09-27T16:06:18;5.22;;;3.42;;
71888;SDS011;59762;49.998;14.858;2022-09-27T16:08:49;4.03;;;2.22;;
71888;SDS011;59762;49.998;14.858;2022-09-27T16:11:14;20.52;;;9.27;;
71888;SDS011;59762;49.998;14.858;2022-09-27T16:13:41;22.13;;;11.43;;
71888;SDS011;59762;49.998;14.858;2022-09-27T16:16:10;45.70;;;19.77;;
71888;SDS011;59762;49.998;14.858;2022-09-27T16:18:38;35.40;;;12.52;;
71888;SDS011;59762;49.998;14.858;2022-09-27T16:21:04;34.03;;;13.75;;
71888;SDS011;59762;49.998;14.858;2022-09-27T16:23:30;49.35;;;20.80;;
71888;SDS011;59762;49.998;14.858;2022-09-27T16:25:55;24.35;;;10.77;;
71888;SDS011;59762;49.998;14.858;2022-09-27T16:28:21;33.65;;;11.55;;
71888;SDS011;59762;49.998;14.858;2022-09-27T16:30:47;38.22;;;15.07;;
71888;SDS011;59762;49.998;14.858;2022-09-27T16:33:12;72.82;;;29.02;;
71888;SDS011;59762;49.998;14.858;2022-09-27T16:35:38;13.60;;;8.23;;
71888;SDS011;59762;49.998;14.858;2022-09-27T16:38:07;14.95;;;7.18;;
71888;SDS011;59762;49.998;14.858;2022-09-27T16:40:32;13.70;;;5.97;;
71888;SDS011;59762;49.998;14.858;2022-09-27T16:42:58;18.95;;;9.25;;
71888;SDS011;59762;49.998;14.858;2022-09-27T16:45:23;17.40;;;9.65;;
71888;SDS011;59762;49.998;14.858;2022-09-27T16:47:58;17.37;;;8.57;;
71888;SDS011;59762;49.998;14.858;2022-09-27T16:50:24;25.88;;;8.90;;
71888;SDS011;59762;49.998;14.858;2022-09-27T16:53:08;22.75;;;8.90;;
71888;SDS011;59762;49.998;14.858;2022-09-27T16:55:34;24.15;;;9.73;;
71888;SDS011;59762;49.998;14.858;2022-09-27T16:58:00;23.58;;;8.95;;
71888;SDS011;59762;49.998;14.858;2022-09-27T17:00:28;16.88;;;6.85;;
71888;SDS011;59762;49.998;14.858;2022-09-27T17:02:55;13.45;;;4.68;;
71888;SDS011;59762;49.998;14.858;2022-09-27T17:05:21;13.68;;;5.75;;
71888;SDS011;59762;49.998;14.858;2022-09-27T17:07:50;11.48;;;6.20;;
71888;SDS011;59762;49.998;14.858;2022-09-27T17:10:17;12.75;;;5.72;;
71888;SDS011;59762;49.998;14.858;2022-09-27T17:12:44;7.13;;;4.43;;
71888;SDS011;59762;49.998;14.858;2022-09-27T17:15:11;8.80;;;4.20;;
71888;SDS011;59762;49.998;14.858;2022-09-27T17:17:37;9.85;;;5.28;;
71888;SDS011;59762;49.998;14.858;2022-09-27T17:20:03;9.90;;;5.97;;
71888;SDS011;59762;49.998;14.858;2022-09-27T17:22:30;6.43;;;3.55;;
71888;SDS011;59762;49.998;14.858;2022-09-27T17:24:56;9.60;;;4.38;;
71888;SDS011;59762;49.998;14.858;2022-09-27T17:27:22;11.63;;;6.10;;
71888;SDS011;59762;49.998;14.858;2022-09-27T17:29:51;11.32;;;6.90;;
71888;SDS011;59762;49.998;14.858;2022-09-27T17:32:17;9.98;;;5.45;;
71888;SDS011;59762;49.998;14.858;2022-09-27T17:34:51;11.65;;;5.63;;
71888;SDS011;59762;49.998;14.858;2022-09-27T17:37:17;11.30;;;5.80;;
71888;SDS011;59762;49.998;14.858;2022-09-27T17:39:43;12.00;;;6.70;;
71888;SDS011;59762;49.998;14.858;2022-09-27T17:42:09;13.68;;;6.78;;
71888;SDS011;59762;49.998;14.858;2022-09-27T17:44:35;19.67;;;8.60;;
71888;SDS011;59762;49.998;14.858;2022-09-27T17:47:02;15.88;;;6.20;;
71888;SDS011;59762;49.998;14.858;2022-09-27T17:49:46;21.75;;;8.93;;